sensor_id;sensor_type;location;lat;lon;timestamp;pressure;altitude;pressure_sealevel;temperature;humidity
58295;BME280;45705;55.592;37.460;2022-09-09T00:04:33;99847.13;;;6.48;89.13
58295;BME280;45705;55.592;37.460;2022-09-09T00:07:24;99845.75;;;6.41;89.48
58295;BME280;45705;55.592;37.460;2022-09-09T00:10:27;99846.25;;;6.38;89.54
58295;BME280;45705;55.592;37.460;2022-09-09T00:15:58;99843.59;;;6.43;89.39
58295;BME280;45705;55.592;37.460;2022-09-09T00:21:07;99849.06;;;6.58;89.30
58295;BME280;45705;55.592;37.460;2022-09-09T00:23:38;99857.34;;;6.41;89.71
58295;BME280;45705;55.592;37.460;2022-09-09T00:26:34;99860.91;;;6.42;89.91
58295;BME280;45705;55.592;37.460;2022-09-09T00:31:34;99860.56;;;6.33;90.72
58295;BME280;45705;55.592;37.460;2022-09-09T00:34:09;99857.06;;;6.33;91.22
58295;BME280;45705;55.592;37.460;2022-09-09T00:36:37;99863.78;;;6.25;91.91
58295;BME280;45705;55.592;37.460;2022-09-09T00:39:04;99866.72;;;6.23;91.61
58295;BME280;45705;55.592;37.460;2022-09-09T00:44:32;99871.53;;;6.16;91.56
58295;BME280;45705;55.592;37.460;2022-09-09T00:57:07;99875.91;;;6.22;91.73
58295;BME280;45705;55.592;37.460;2022-09-09T00:59:54;99875.03;;;6.11;91.71
58295;BME280;45705;55.592;37.460;2022-09-09T01:03:19;99880.09;;;5.98;92.52
58295;BME280;45705;55.592;37.460;2022-09-09T01:11:49;99890.63;;;6.04;93.46
58295;BME280;45705;55.592;37.460;2022-09-09T01:14:29;99892.13;;;6.22;92.32
58295;BME280;45705;55.592;37.460;2022-09-09T01:17:04;99888.84;;;6.20;92.17
58295;BME280;45705;55.592;37.460;2022-09-09T01:25:18;99900.38;;;6.10;92.35
58295;BME280;45705;55.592;37.460;2022-09-09T01:28:10;99903.88;;;6.06;92.91
58295;BME280;45705;55.592;37.460;2022-09-09T01:30:39;99904.94;;;6.00;93.26
58295;BME280;45705;55.592;37.460;2022-09-09T01:33:13;99906.53;;;6.01;93.30
58295;BME280;45705;55.592;37.460;2022-09-09T01:35:45;99905.78;;;6.05;93.09
58295;BME280;45705;55.592;37.460;2022-09-09T01:38:14;99914.69;;;6.06;93.12
58295;BME280;45705;55.592;37.460;2022-09-09T01:40:41;99907.53;;;5.95;93.49
58295;BME280;45705;55.592;37.460;2022-09-09T01:43:07;99916.78;;;5.99;93.08
58295;BME280;45705;55.592;37.460;2022-09-09T01:45:34;99912.78;;;6.01;93.32
58295;BME280;45705;55.592;37.460;2022-09-09T01:48:00;99915.63;;;5.89;93.65
58295;BME280;45705;55.592;37.460;2022-09-09T01:50:51;99921.44;;;5.76;94.50
58295;BME280;45705;55.592;37.460;2022-09-09T01:53:19;99918.47;;;5.78;95.01
58295;BME280;45705;55.592;37.460;2022-09-09T01:58:52;99921.88;;;5.63;96.34
58295;BME280;45705;55.592;37.460;2022-09-09T02:01:45;99925.38;;;5.63;96.50
58295;BME280;45705;55.592;37.460;2022-09-09T02:04:44;99937.59;;;5.71;96.34
58295;BME280;45705;55.592;37.460;2022-09-09T02:07:31;99937.75;;;5.59;96.74
58295;BME280;45705;55.592;37.460;2022-09-09T02:10:11;99936.41;;;5.62;97.22
58295;BME280;45705;55.592;37.460;2022-09-09T02:12:52;99935.97;;;5.70;97.07
58295;BME280;45705;55.592;37.460;2022-09-09T02:15:33;99934.88;;;5.71;96.89
58295;BME280;45705;55.592;37.460;2022-09-09T02:18:03;99927.47;;;5.56;97.10
58295;BME280;45705;55.592;37.460;2022-09-09T02:20:32;99936.56;;;5.45;97.84
58295;BME280;45705;55.592;37.460;2022-09-09T02:23:00;99935.84;;;5.55;98.08
58295;BME280;45705;55.592;37.460;2022-09-09T02:25:28;99937.44;;;5.56;97.76
58295;BME280;45705;55.592;37.460;2022-09-09T02:28:07;99940.41;;;5.54;98.33
58295;BME280;45705;55.592;37.460;2022-09-09T02:30:37;99949.75;;;5.46;98.75
58295;BME280;45705;55.592;37.460;2022-09-09T02:33:07;99952.53;;;5.51;98.63
58295;BME280;45705;55.592;37.460;2022-09-09T02:35:50;99953.00;;;5.48;99.08
58295;BME280;45705;55.592;37.460;2022-09-09T02:38:20;99943.81;;;5.44;98.41
58295;BME280;45705;55.592;37.460;2022-09-09T02:41:05;99948.72;;;5.47;98.23
58295;BME280;45705;55.592;37.460;2022-09-09T02:43:33;99962.59;;;5.34;98.88
58295;BME280;45705;55.592;37.460;2022-09-09T02:51:53;99970.34;;;5.52;98.81
58295;BME280;45705;55.592;37.460;2022-09-09T02:54:28;99966.25;;;5.50;98.50
58295;BME280;45705;55.592;37.460;2022-09-09T02:57:20;99963.94;;;5.59;98.36
58295;BME280;45705;55.592;37.460;2022-09-09T02:59:49;99960.34;;;5.53;98.18
58295;BME280;45705;55.592;37.460;2022-09-09T03:02:18;99971.72;;;5.33;98.77
58295;BME280;45705;55.592;37.460;2022-09-09T03:04:47;99977.03;;;5.23;100.00
58295;BME280;45705;55.592;37.460;2022-09-09T03:07:18;99967.97;;;5.34;100.00
58295;BME280;45705;55.592;37.460;2022-09-09T03:09:45;99969.50;;;5.25;100.00
58295;BME280;45705;55.592;37.460;2022-09-09T03:12:11;99977.47;;;5.15;100.00
58295;BME280;45705;55.592;37.460;2022-09-09T03:14:38;99978.03;;;5.17;100.00
58295;BME280;45705;55.592;37.460;2022-09-09T03:17:05;99983.53;;;5.27;100.00
58295;BME280;45705;55.592;37.460;2022-09-09T03:19:35;99986.78;;;5.29;100.00
58295;BME280;45705;55.592;37.460;2022-09-09T03:22:02;99975.97;;;5.24;100.00
58295;BME280;45705;55.592;37.460;2022-09-09T03:24:30;99988.06;;;5.21;100.00
58295;BME280;45705;55.592;37.460;2022-09-09T03:26:56;99977.28;;;4.99;100.00
58295;BME280;45705;55.592;37.460;2022-09-09T03:29:22;99989.41;;;4.97;100.00
58295;BME280;45705;55.592;37.460;2022-09-09T03:31:51;99988.56;;;4.96;100.00
58295;BME280;45705;55.592;37.460;2022-09-09T03:34:17;99991.44;;;5.11;100.00
58295;BME280;45705;55.592;37.460;2022-09-09T03:36:43;99998.28;;;5.19;100.00
58295;BME280;45705;55.592;37.460;2022-09-09T03:39:09;100003.97;;;5.23;100.00
58295;BME280;45705;55.592;37.460;2022-09-09T03:41:35;99999.28;;;5.35;100.00
58295;BME280;45705;55.592;37.460;2022-09-09T03:44:03;99996.28;;;5.59;100.00
58295;BME280;45705;55.592;37.460;2022-09-09T03:46:34;100005.34;;;5.47;99.33
58295;BME280;45705;55.592;37.460;2022-09-09T03:49:00;100009.81;;;5.64;98.88
58295;BME280;45705;55.592;37.460;2022-09-09T03:51:26;99991.44;;;5.88;97.43
58295;BME280;45705;55.592;37.460;2022-09-09T03:53:53;100002.13;;;6.37;94.25
58295;BME280;45705;55.592;37.460;2022-09-09T03:56:21;99995.88;;;6.74;90.38
58295;BME280;45705;55.592;37.460;2022-09-09T03:58:47;100001.22;;;7.22;86.56
58295;BME280;45705;55.592;37.460;2022-09-09T04:01:14;100000.78;;;7.56;83.89
58295;BME280;45705;55.592;37.460;2022-09-09T04:03:41;99998.41;;;7.95;81.05
58295;BME280;45705;55.592;37.460;2022-09-09T04:06:09;99994.34;;;8.59;77.51
58295;BME280;45705;55.592;37.460;2022-09-09T04:08:37;100000.06;;;9.33;73.32
58295;BME280;45705;55.592;37.460;2022-09-09T04:11:05;100003.72;;;9.97;69.53
58295;BME280;45705;55.592;37.460;2022-09-09T04:13:33;100010.19;;;10.07;68.36
58295;BME280;45705;55.592;37.460;2022-09-09T04:16:01;100006.03;;;10.78;65.05
58295;BME280;45705;55.592;37.460;2022-09-09T04:18:28;100005.31;;;10.91;63.48
58295;BME280;45705;55.592;37.460;2022-09-09T04:20:54;100008.47;;;11.85;60.10
58295;BME280;45705;55.592;37.460;2022-09-09T04:23:26;99998.81;;;11.35;61.03
58295;BME280;45705;55.592;37.460;2022-09-09T04:25:54;100004.00;;;12.59;57.27
58295;BME280;45705;55.592;37.460;2022-09-09T04:28:22;100006.25;;;12.85;55.77
58295;BME280;45705;55.592;37.460;2022-09-09T04:30:49;100006.25;;;12.85;55.38
58295;BME280;45705;55.592;37.460;2022-09-09T04:33:16;100009.22;;;12.56;55.47
58295;BME280;45705;55.592;37.460;2022-09-09T04:35:48;100003.03;;;13.38;53.40
58295;BME280;45705;55.592;37.460;2022-09-09T04:38:15;100004.19;;;13.60;52.09
58295;BME280;45705;55.592;37.460;2022-09-09T04:40:43;99994.13;;;12.91;53.58
58295;BME280;45705;55.592;37.460;2022-09-09T04:43:09;100005.06;;;12.91;54.20
58295;BME280;45705;55.592;37.460;2022-09-09T04:45:36;100009.88;;;13.22;52.49
58295;BME280;45705;55.592;37.460;2022-09-09T04:48:02;100010.91;;;13.26;52.65
58295;BME280;45705;55.592;37.460;2022-09-09T04:50:29;100011.50;;;13.23;52.68
58295;BME280;45705;55.592;37.460;2022-09-09T04:53:04;100021.22;;;13.02;53.45
58295;BME280;45705;55.592;37.460;2022-09-09T04:55:35;100021.84;;;13.26;52.60
58295;BME280;45705;55.592;37.460;2022-09-09T04:58:05;100019.59;;;13.56;52.33
58295;BME280;45705;55.592;37.460;2022-09-09T05:00:32;100024.13;;;13.97;50.79
58295;BME280;45705;55.592;37.460;2022-09-09T05:03:05;100029.44;;;14.38;49.04
58295;BME280;45705;55.592;37.460;2022-09-09T05:05:32;100030.19;;;14.84;47.81
58295;BME280;45705;55.592;37.460;2022-09-09T05:08:06;100028.78;;;14.95;46.54
58295;BME280;45705;55.592;37.460;2022-09-09T05:10:37;100033.84;;;15.11;45.92
58295;BME280;45705;55.592;37.460;2022-09-09T05:13:04;100031.06;;;15.51;44.50
58295;BME280;45705;55.592;37.460;2022-09-09T05:15:30;100027.66;;;15.54;44.18
58295;BME280;45705;55.592;37.460;2022-09-09T05:18:00;100027.38;;;16.25;42.44
58295;BME280;45705;55.592;37.460;2022-09-09T05:20:29;100033.31;;;15.66;43.13
58295;BME280;45705;55.592;37.460;2022-09-09T05:22:56;100033.53;;;15.96;42.84
58295;BME280;45705;55.592;37.460;2022-09-09T05:25:26;100034.97;;;15.85;43.33
58295;BME280;45705;55.592;37.460;2022-09-09T05:27:53;100049.44;;;15.59;43.46
58295;BME280;45705;55.592;37.460;2022-09-09T05:30:20;100045.41;;;15.65;42.94
58295;BME280;45705;55.592;37.460;2022-09-09T05:32:46;100036.03;;;16.53;40.88
58295;BME280;45705;55.592;37.460;2022-09-09T05:35:15;100042.88;;;16.39;41.36
58295;BME280;45705;55.592;37.460;2022-09-09T05:37:41;100031.31;;;16.89;40.08
58295;BME280;45705;55.592;37.460;2022-09-09T05:40:07;100031.66;;;16.70;40.22
58295;BME280;45705;55.592;37.460;2022-09-09T05:42:33;100030.91;;;17.08;39.64
58295;BME280;45705;55.592;37.460;2022-09-09T05:45:00;100033.72;;;16.90;40.08
58295;BME280;45705;55.592;37.460;2022-09-09T05:47:26;100033.91;;;17.24;39.53
58295;BME280;45705;55.592;37.460;2022-09-09T05:49:54;100036.88;;;17.40;38.83
58295;BME280;45705;55.592;37.460;2022-09-09T05:52:21;100028.56;;;17.48;38.15
58295;BME280;45705;55.592;37.460;2022-09-09T05:54:48;100033.16;;;16.50;38.16
58295;BME280;45705;55.592;37.460;2022-09-09T05:57:14;100047.56;;;16.21;39.57
58295;BME280;45705;55.592;37.460;2022-09-09T05:59:40;100047.88;;;16.10;39.52
58295;BME280;45705;55.592;37.460;2022-09-09T06:02:08;100058.63;;;14.74;41.18
58295;BME280;45705;55.592;37.460;2022-09-09T06:04:35;100057.34;;;15.69;40.52
58295;BME280;45705;55.592;37.460;2022-09-09T06:07:02;100064.88;;;15.38;40.30
58295;BME280;45705;55.592;37.460;2022-09-09T06:09:29;100048.00;;;15.62;39.14
58295;BME280;45705;55.592;37.460;2022-09-09T06:11:55;100062.66;;;15.57;39.81
58295;BME280;45705;55.592;37.460;2022-09-09T06:14:27;100059.00;;;16.58;38.00
58295;BME280;45705;55.592;37.460;2022-09-09T06:16:55;100054.09;;;17.79;36.44
58295;BME280;45705;55.592;37.460;2022-09-09T06:19:25;100058.69;;;17.96;35.15
58295;BME280;45705;55.592;37.460;2022-09-09T06:21:54;100052.13;;;18.76;33.40
58295;BME280;45705;55.592;37.460;2022-09-09T06:24:20;100042.16;;;18.83;33.46
58295;BME280;45705;55.592;37.460;2022-09-09T06:26:46;100066.06;;;18.04;34.90
58295;BME280;45705;55.592;37.460;2022-09-09T06:29:18;100062.53;;;17.74;34.91
58295;BME280;45705;55.592;37.460;2022-09-09T06:31:44;100070.38;;;16.95;35.38
58295;BME280;45705;55.592;37.460;2022-09-09T06:34:15;100080.34;;;14.48;39.04
58295;BME280;45705;55.592;37.460;2022-09-09T06:36:45;100092.16;;;13.34;42.64
58295;BME280;45705;55.592;37.460;2022-09-09T06:39:12;100086.22;;;12.53;44.74
58295;BME280;45705;55.592;37.460;2022-09-09T06:41:39;100082.50;;;12.30;45.82
58295;BME280;45705;55.592;37.460;2022-09-09T06:44:08;100091.59;;;12.06;44.69
58295;BME280;45705;55.592;37.460;2022-09-09T06:46:39;100091.84;;;13.36;42.60
58295;BME280;45705;55.592;37.460;2022-09-09T06:49:08;100093.81;;;13.03;43.33
58295;BME280;45705;55.592;37.460;2022-09-09T06:51:36;100094.78;;;13.39;43.31
58295;BME280;45705;55.592;37.460;2022-09-09T06:54:04;100094.44;;;13.13;43.96
58295;BME280;45705;55.592;37.460;2022-09-09T06:56:31;100098.31;;;13.26;43.12
58295;BME280;45705;55.592;37.460;2022-09-09T06:59:02;100103.25;;;12.77;44.46
58295;BME280;45705;55.592;37.460;2022-09-09T07:01:32;100098.50;;;14.89;40.82
58295;BME280;45705;55.592;37.460;2022-09-09T07:04:01;100092.13;;;16.18;37.97
58295;BME280;45705;55.592;37.460;2022-09-09T07:06:36;100094.84;;;16.18;38.10
58295;BME280;45705;55.592;37.460;2022-09-09T07:09:05;100084.84;;;16.39;36.50
58295;BME280;45705;55.592;37.460;2022-09-09T07:11:41;100083.84;;;17.26;34.99
58295;BME280;45705;55.592;37.460;2022-09-09T07:14:08;100095.81;;;16.48;35.10
58295;BME280;45705;55.592;37.460;2022-09-09T07:16:34;100103.97;;;14.89;37.73
58295;BME280;45705;55.592;37.460;2022-09-09T07:19:03;100107.94;;;16.38;36.10
58295;BME280;45705;55.592;37.460;2022-09-09T07:21:30;100110.84;;;15.49;36.58
58295;BME280;45705;55.592;37.460;2022-09-09T07:23:57;100112.13;;;16.27;35.48
58295;BME280;45705;55.592;37.460;2022-09-09T07:26:26;100105.31;;;16.07;35.58
58295;BME280;45705;55.592;37.460;2022-09-09T07:28:53;100107.72;;;14.71;36.46
58295;BME280;45705;55.592;37.460;2022-09-09T07:31:31;100111.41;;;14.66;37.57
58295;BME280;45705;55.592;37.460;2022-09-09T07:33:59;100109.78;;;14.06;39.35
58295;BME280;45705;55.592;37.460;2022-09-09T07:36:28;100118.56;;;13.67;41.30
58295;BME280;45705;55.592;37.460;2022-09-09T07:38:57;100129.59;;;13.48;40.98
58295;BME280;45705;55.592;37.460;2022-09-09T07:41:29;100127.66;;;13.34;41.23
58295;BME280;45705;55.592;37.460;2022-09-09T07:43:56;100132.16;;;13.11;41.17
58295;BME280;45705;55.592;37.460;2022-09-09T07:46:25;100135.09;;;13.15;41.19
58295;BME280;45705;55.592;37.460;2022-09-09T07:48:53;100143.22;;;12.54;41.88
58295;BME280;45705;55.592;37.460;2022-09-09T07:51:31;100150.00;;;12.38;42.40
58295;BME280;45705;55.592;37.460;2022-09-09T07:54:00;100148.34;;;12.75;42.24
58295;BME280;45705;55.592;37.460;2022-09-09T07:56:30;100153.56;;;12.19;43.19
58295;BME280;45705;55.592;37.460;2022-09-09T07:58:58;100158.13;;;12.43;42.57
58295;BME280;45705;55.592;37.460;2022-09-09T08:04:00;100161.25;;;11.45;44.46
58295;BME280;45705;55.592;37.460;2022-09-09T08:06:30;100162.53;;;11.53;44.54
58295;BME280;45705;55.592;37.460;2022-09-09T08:08:57;100160.31;;;11.55;44.37
58295;BME280;45705;55.592;37.460;2022-09-09T08:11:24;100163.81;;;11.85;44.36
58295;BME280;45705;55.592;37.460;2022-09-09T08:13:51;100148.47;;;12.13;43.79
58295;BME280;45705;55.592;37.460;2022-09-09T08:16:19;100150.69;;;12.30;42.94
58295;BME280;45705;55.592;37.460;2022-09-09T08:18:49;100154.81;;;12.79;41.96
58295;BME280;45705;55.592;37.460;2022-09-09T08:21:20;100155.25;;;12.86;41.59
58295;BME280;45705;55.592;37.460;2022-09-09T08:23:47;100156.13;;;12.11;43.20
58295;BME280;45705;55.592;37.460;2022-09-09T08:26:17;100162.31;;;11.73;44.35
58295;BME280;45705;55.592;37.460;2022-09-09T08:28:44;100168.19;;;11.80;44.56
58295;BME280;45705;55.592;37.460;2022-09-09T08:31:16;100172.22;;;11.64;45.22
58295;BME280;45705;55.592;37.460;2022-09-09T08:33:44;100167.56;;;11.40;45.59
58295;BME280;45705;55.592;37.460;2022-09-09T08:36:21;100173.50;;;11.18;45.17
58295;BME280;45705;55.592;37.460;2022-09-09T08:38:56;100164.69;;;11.56;44.77
58295;BME280;45705;55.592;37.460;2022-09-09T08:44:19;100174.34;;;10.84;46.18
58295;BME280;45705;55.592;37.460;2022-09-09T08:55:22;100170.97;;;11.51;44.04
58295;BME280;45705;55.592;37.460;2022-09-09T08:57:51;100169.47;;;11.64;44.67
58295;BME280;45705;55.592;37.460;2022-09-09T09:00:18;100170.34;;;11.83;43.81
58295;BME280;45705;55.592;37.460;2022-09-09T09:03:06;100163.28;;;12.26;43.61
58295;BME280;45705;55.592;37.460;2022-09-09T09:05:45;100178.63;;;12.21;44.65
58295;BME280;45705;55.592;37.460;2022-09-09T09:10:53;100181.81;;;11.80;44.43
58295;BME280;45705;55.592;37.460;2022-09-09T09:16:52;100187.78;;;11.34;45.39
58295;BME280;45705;55.592;37.460;2022-09-09T09:19:19;100179.09;;;11.32;45.66
58295;BME280;45705;55.592;37.460;2022-09-09T09:21:59;100179.84;;;11.86;44.31
58295;BME280;45705;55.592;37.460;2022-09-09T09:24:54;100174.03;;;12.36;42.81
58295;BME280;45705;55.592;37.460;2022-09-09T09:27:35;100180.84;;;11.95;42.67
58295;BME280;45705;55.592;37.460;2022-09-09T09:30:17;100171.97;;;12.28;42.70
58295;BME280;45705;55.592;37.460;2022-09-09T09:32:54;100165.19;;;12.44;41.33
58295;BME280;45705;55.592;37.460;2022-09-09T09:35:22;100167.72;;;12.21;42.34
58295;BME280;45705;55.592;37.460;2022-09-09T09:37:48;100170.22;;;12.37;43.04
58295;BME280;45705;55.592;37.460;2022-09-09T09:40:19;100175.88;;;12.40;44.15
58295;BME280;45705;55.592;37.460;2022-09-09T09:42:54;100172.59;;;11.76;45.20
58295;BME280;45705;55.592;37.460;2022-09-09T09:45:40;100174.81;;;11.74;44.36
58295;BME280;45705;55.592;37.460;2022-09-09T09:48:10;100166.63;;;11.74;44.07
58295;BME280;45705;55.592;37.460;2022-09-09T09:50:56;100166.69;;;12.17;42.87
58295;BME280;45705;55.592;37.460;2022-09-09T09:53:25;100167.41;;;11.56;43.54
58295;BME280;45705;55.592;37.460;2022-09-09T09:56:08;100158.94;;;12.44;42.49
58295;BME280;45705;55.592;37.460;2022-09-09T09:58:49;100159.38;;;12.32;41.92
58295;BME280;45705;55.592;37.460;2022-09-09T10:01:29;100159.66;;;12.30;41.70
58295;BME280;45705;55.592;37.460;2022-09-09T10:06:42;100169.03;;;12.24;42.45
58295;BME280;45705;55.592;37.460;2022-09-09T10:09:23;100179.59;;;11.63;43.99
58295;BME280;45705;55.592;37.460;2022-09-09T10:11:59;100178.75;;;11.63;44.22
58295;BME280;45705;55.592;37.460;2022-09-09T10:14:39;100173.25;;;11.44;44.09
58295;BME280;45705;55.592;37.460;2022-09-09T10:22:44;100189.19;;;11.56;43.94
58295;BME280;45705;55.592;37.460;2022-09-09T10:30:22;100180.44;;;12.07;43.60
58295;BME280;45705;55.592;37.460;2022-09-09T10:35:39;100182.50;;;11.96;43.63
58295;BME280;45705;55.592;37.460;2022-09-09T10:46:06;100171.59;;;12.53;43.28
58295;BME280;45705;55.592;37.460;2022-09-09T10:51:54;100167.59;;;12.84;41.51
58295;BME280;45705;55.592;37.460;2022-09-09T10:54:24;100170.00;;;12.85;41.13
58295;BME280;45705;55.592;37.460;2022-09-09T10:57:08;100170.56;;;12.49;41.83
58295;BME280;45705;55.592;37.460;2022-09-09T10:59:47;100180.56;;;11.97;42.68
58295;BME280;45705;55.592;37.460;2022-09-09T11:02:31;100191.16;;;11.74;42.94
58295;BME280;45705;55.592;37.460;2022-09-09T11:04:58;100184.53;;;11.80;43.00
58295;BME280;45705;55.592;37.460;2022-09-09T11:10:06;100167.69;;;12.59;41.71
58295;BME280;45705;55.592;37.460;2022-09-09T11:12:39;100172.06;;;12.93;41.24
58295;BME280;45705;55.592;37.460;2022-09-09T11:15:19;100174.44;;;12.81;40.98
58295;BME280;45705;55.592;37.460;2022-09-09T11:17:50;100175.88;;;12.21;41.74
58295;BME280;45705;55.592;37.460;2022-09-09T11:20:17;100177.13;;;12.10;41.53
58295;BME280;45705;55.592;37.460;2022-09-09T11:25:25;100176.19;;;12.20;42.03
58295;BME280;45705;55.592;37.460;2022-09-09T11:30:45;100182.16;;;12.41;42.98
58295;BME280;45705;55.592;37.460;2022-09-09T11:38:40;100178.81;;;13.29;42.37
58295;BME280;45705;55.592;37.460;2022-09-09T11:41:10;100175.53;;;13.32;42.41
58295;BME280;45705;55.592;37.460;2022-09-09T11:43:42;100174.19;;;13.57;41.60
58295;BME280;45705;55.592;37.460;2022-09-09T11:46:09;100183.03;;;13.21;42.12
58295;BME280;45705;55.592;37.460;2022-09-09T11:53:28;100176.38;;;12.61;41.05
58295;BME280;45705;55.592;37.460;2022-09-09T11:58:43;100159.78;;;12.58;40.96
58295;BME280;45705;55.592;37.460;2022-09-09T12:04:27;100163.81;;;12.47;40.98
58295;BME280;45705;55.592;37.460;2022-09-09T12:06:58;100175.34;;;12.57;40.73
58295;BME280;45705;55.592;37.460;2022-09-09T12:12:05;100167.84;;;13.01;41.55
58295;BME280;45705;55.592;37.460;2022-09-09T12:17:23;100170.13;;;12.61;41.52
58295;BME280;45705;55.592;37.460;2022-09-09T12:31:01;100178.38;;;11.75;43.35
58295;BME280;45705;55.592;37.460;2022-09-09T12:33:37;100180.38;;;11.64;43.17
58295;BME280;45705;55.592;37.460;2022-09-09T12:36:13;100179.22;;;11.70;43.25
58295;BME280;45705;55.592;37.460;2022-09-09T12:38:41;100184.66;;;11.70;43.12
58295;BME280;45705;55.592;37.460;2022-09-09T12:41:21;100178.41;;;11.94;42.71
58295;BME280;45705;55.592;37.460;2022-09-09T12:43:48;100181.47;;;11.92;42.93
58295;BME280;45705;55.592;37.460;2022-09-09T12:46:43;100178.41;;;11.94;43.17
58295;BME280;45705;55.592;37.460;2022-09-09T12:51:54;100167.09;;;12.25;42.62
58295;BME280;45705;55.592;37.460;2022-09-09T12:54:22;100176.03;;;12.30;42.14
58295;BME280;45705;55.592;37.460;2022-09-09T12:56:49;100166.44;;;12.14;41.95
58295;BME280;45705;55.592;37.460;2022-09-09T12:59:26;100175.16;;;12.35;42.34
58295;BME280;45705;55.592;37.460;2022-09-09T13:02:00;100178.31;;;12.42;42.58
58295;BME280;45705;55.592;37.460;2022-09-09T13:04:25;100154.66;;;12.37;43.32
58295;BME280;45705;55.592;37.460;2022-09-09T13:06:51;100178.63;;;12.21;44.42
58295;BME280;45705;55.592;37.460;2022-09-09T13:09:20;100187.00;;;12.06;44.86
58295;BME280;45705;55.592;37.460;2022-09-09T13:11:50;100176.00;;;12.11;44.50
58295;BME280;45705;55.592;37.460;2022-09-09T13:14:22;100179.75;;;12.15;44.37
58295;BME280;45705;55.592;37.460;2022-09-09T13:17:00;100181.97;;;11.94;44.84
58295;BME280;45705;55.592;37.460;2022-09-09T13:19:29;100184.56;;;12.05;44.01
58295;BME280;45705;55.592;37.460;2022-09-09T13:21:57;100181.97;;;12.13;43.06
58295;BME280;45705;55.592;37.460;2022-09-09T13:24:32;100183.28;;;11.97;42.88
58295;BME280;45705;55.592;37.460;2022-09-09T13:29:51;100184.47;;;11.91;43.52
58295;BME280;45705;55.592;37.460;2022-09-09T13:32:21;100181.41;;;12.16;43.31
58295;BME280;45705;55.592;37.460;2022-09-09T13:34:55;100170.28;;;12.13;43.43
58295;BME280;45705;55.592;37.460;2022-09-09T13:39:54;100177.06;;;12.34;43.21
58295;BME280;45705;55.592;37.460;2022-09-09T13:42:31;100177.28;;;12.38;42.83
58295;BME280;45705;55.592;37.460;2022-09-09T13:44:58;100169.72;;;12.35;42.88
58295;BME280;45705;55.592;37.460;2022-09-09T13:47:32;100173.00;;;12.32;42.56
58295;BME280;45705;55.592;37.460;2022-09-09T13:50:24;100169.59;;;12.40;42.78
58295;BME280;45705;55.592;37.460;2022-09-09T13:52:52;100170.94;;;12.24;42.67
58295;BME280;45705;55.592;37.460;2022-09-09T13:55:20;100170.28;;;12.13;43.12
58295;BME280;45705;55.592;37.460;2022-09-09T13:57:58;100171.53;;;12.20;42.92
58295;BME280;45705;55.592;37.460;2022-09-09T14:00:25;100165.09;;;12.11;43.02
58295;BME280;45705;55.592;37.460;2022-09-09T14:02:51;100165.84;;;12.17;43.19
58295;BME280;45705;55.592;37.460;2022-09-09T14:05:18;100173.16;;;12.21;42.94
58295;BME280;45705;55.592;37.460;2022-09-09T14:07:44;100161.06;;;12.09;43.57
58295;BME280;45705;55.592;37.460;2022-09-09T14:10:11;100172.72;;;12.14;43.60
58295;BME280;45705;55.592;37.460;2022-09-09T14:12:37;100165.41;;;12.10;44.13
58295;BME280;45705;55.592;37.460;2022-09-09T14:15:04;100169.53;;;12.07;44.16
58295;BME280;45705;55.592;37.460;2022-09-09T14:17:31;100157.53;;;12.08;43.78
58295;BME280;45705;55.592;37.460;2022-09-09T14:19:57;100167.41;;;12.04;44.30
58295;BME280;45705;55.592;37.460;2022-09-09T14:22:23;100164.81;;;12.32;43.99
58295;BME280;45705;55.592;37.460;2022-09-09T14:24:49;100168.00;;;12.39;42.49
58295;BME280;45705;55.592;37.460;2022-09-09T14:27:17;100175.16;;;12.35;42.17
58295;BME280;45705;55.592;37.460;2022-09-09T14:29:44;100168.13;;;11.86;42.90
58295;BME280;45705;55.592;37.460;2022-09-09T14:32:11;100182.28;;;11.88;43.36
58295;BME280;45705;55.592;37.460;2022-09-09T14:34:37;100173.59;;;11.61;44.39
58295;BME280;45705;55.592;37.460;2022-09-09T14:37:03;100172.84;;;12.04;43.58
58295;BME280;45705;55.592;37.460;2022-09-09T14:39:29;100175.13;;;11.97;43.73
58295;BME280;45705;55.592;37.460;2022-09-09T14:41:55;100171.22;;;11.55;45.03
58295;BME280;45705;55.592;37.460;2022-09-09T14:44:20;100166.81;;;11.59;45.46
58295;BME280;45705;55.592;37.460;2022-09-09T14:46:47;100173.59;;;11.37;46.31
58295;BME280;45705;55.592;37.460;2022-09-09T14:49:15;100167.63;;;11.35;46.47
58295;BME280;45705;55.592;37.460;2022-09-09T14:51:41;100166.19;;;11.14;47.24
58295;BME280;45705;55.592;37.460;2022-09-09T14:54:07;100163.19;;;11.15;47.43
58295;BME280;45705;55.592;37.460;2022-09-09T14:56:33;100160.19;;;11.17;47.42
58295;BME280;45705;55.592;37.460;2022-09-09T14:59:03;100172.13;;;11.21;47.01
58295;BME280;45705;55.592;37.460;2022-09-09T15:01:30;100174.31;;;11.19;47.40
58295;BME280;45705;55.592;37.460;2022-09-09T15:04:02;100166.25;;;11.09;47.67
58295;BME280;45705;55.592;37.460;2022-09-09T15:06:31;100172.78;;;11.08;47.59
58295;BME280;45705;55.592;37.460;2022-09-09T15:08:59;100169.88;;;10.99;48.08
58295;BME280;45705;55.592;37.460;2022-09-09T15:11:27;100168.97;;;11.09;48.10
58295;BME280;45705;55.592;37.460;2022-09-09T15:13:53;100168.50;;;11.31;47.61
58295;BME280;45705;55.592;37.460;2022-09-09T15:16:21;100171.16;;;11.07;48.15
58295;BME280;45705;55.592;37.460;2022-09-09T15:18:51;100163.59;;;11.03;47.96
58295;BME280;45705;55.592;37.460;2022-09-09T15:21:19;100172.44;;;11.14;48.15
58295;BME280;45705;55.592;37.460;2022-09-09T15:23:46;100177.09;;;11.14;47.93
58295;BME280;45705;55.592;37.460;2022-09-09T15:26:13;100176.97;;;11.24;47.66